Time;durP1;ratioP1;P1;durP2;ratioP2;P2;SDS_P1;SDS_P2;PMS_P1;PMS_P2;Temp;Humidity;BMP_temperature;BMP_pressure;BME280_temperature;BME280_humidity;BME280_pressure;Samples;Min_cycle;Max_cycle;Signal;HPM_P1;HPM_P2
2023/08/20 00:01:48;;;;;;;15.30;4.68;;;;;;;;;;5084236;28;20036;-58
2023/08/20 00:04:15;;;;;;;10.77;3.90;;;;;;;;;;5083792;28;20036;-58
2023/08/20 00:06:42;;;;;;;12.57;4.18;;;;;;;;;;5084390;28;20052;-58
2023/08/20 00:09:09;;;;;;;12.55;4.43;;;;;;;;;;5083811;28;20040;-58
2023/08/20 00:11:35;;;;;;;8.20;4.28;;;;;;;;;;5090050;28;20044;-58
2023/08/20 00:14:01;;;;;;;12.10;4.50;;;;;;;;;;5087986;28;20040;-58
2023/08/20 00:16:27;;;;;;;11.68;4.78;;;;;;;;;;5082457;28;20399;-58
2023/08/20 00:18:54;;;;;;;14.05;4.50;;;;;;;;;;5091367;28;20126;-58
2023/08/20 00:21:20;;;;;;;9.38;4.43;;;;;;;;;;5096066;28;20050;-57
2023/08/20 00:23:46;;;;;;;14.05;4.38;;;;;;;;;;5089170;28;20052;-58
2023/08/20 00:26:12;;;;;;;11.30;4.45;;;;;;;;;;5084387;28;20052;-57
2023/08/20 00:28:39;;;;;;;10.15;4.75;;;;;;;;;;5085475;28;20036;-58
2023/08/20 00:31:05;;;;;;;10.57;4.15;;;;;;;;;;5088495;28;20040;-58
2023/08/20 00:33:34;;;;;;;10.23;4.32;;;;;;;;;;5088330;28;20040;-58
2023/08/20 00:36:00;;;;;;;12.57;3.50;;;;;;;;;;5091982;28;20040;-58
2023/08/20 00:38:27;;;;;;;10.32;4.00;;;;;;;;;;5090838;28;20028;-58
2023/08/20 00:40:53;;;;;;;12.57;4.65;;;;;;;;;;5089078;28;20101;-58
2023/08/20 00:43:19;;;;;;;9.57;4.85;;;;;;;;;;5088874;28;20119;-58
2023/08/20 00:45:45;;;;;;;9.13;4.57;;;;;;;;;;5089795;28;20126;-58
2023/08/20 00:48:12;;;;;;;13.13;5.80;;;;;;;;;;5088348;28;20062;-58
2023/08/20 00:50:39;;;;;;;15.15;5.35;;;;;;;;;;5101657;28;20371;-58
2023/08/20 00:53:05;;;;;;;13.30;6.13;;;;;;;;;;5096330;28;20043;-58
2023/08/20 00:55:32;;;;;;;12.90;5.32;;;;;;;;;;5101603;28;20119;-58
2023/08/20 00:57:58;;;;;;;11.30;5.53;;;;;;;;;;5090550;28;20509;-58
2023/08/20 01:00:25;;;;;;;13.95;5.80;;;;;;;;;;5089764;28;20084;-58
2023/08/20 01:02:51;;;;;;;12.40;5.50;;;;;;;;;;5089995;28;20036;-58
2023/08/20 01:05:17;;;;;;;15.65;5.03;;;;;;;;;;5089653;28;20040;-58
2023/08/20 01:07:52;;;;;;;13.00;4.88;;;;;;;;;;5091948;28;20059;-58
2023/08/20 01:10:22;;;;;;;17.58;5.90;;;;;;;;;;5085361;28;20408;-58
2023/08/20 01:12:48;;;;;;;11.25;5.22;;;;;;;;;;5098151;28;20391;-58
2023/08/20 01:15:15;;;;;;;6.95;3.55;;;;;;;;;;5092028;27;20043;-58
2023/08/20 01:17:42;;;;;;;10.98;2.97;;;;;;;;;;5087978;28;20093;-58
2023/08/20 01:20:10;;;;;;;6.20;3.65;;;;;;;;;;5089200;28;20054;-58
2023/08/20 01:22:47;;;;;;;9.80;3.88;;;;;;;;;;5090148;28;20138;-58
2023/08/20 01:25:19;;;;;;;8.95;4.38;;;;;;;;;;5089954;28;20263;-58
2023/08/20 01:27:57;;;;;;;11.32;4.07;;;;;;;;;;5091448;28;20119;-58
2023/08/20 01:30:24;;;;;;;10.70;4.88;;;;;;;;;;5087036;28;20396;-58
2023/08/20 01:32:51;;;;;;;12.80;5.28;;;;;;;;;;5090410;28;20544;-58
2023/08/20 01:35:18;;;;;;;9.40;4.80;;;;;;;;;;5088510;28;20118;-58
2023/08/20 01:37:44;;;;;;;8.45;5.50;;;;;;;;;;5089029;28;20050;-58
2023/08/20 01:40:11;;;;;;;10.60;4.85;;;;;;;;;;5086395;28;20376;-58
2023/08/20 01:42:38;;;;;;;15.90;4.57;;;;;;;;;;5087459;28;20066;-58
2023/08/20 01:45:04;;;;;;;9.88;4.57;;;;;;;;;;5089322;28;20119;-59
2023/08/20 01:47:31;;;;;;;12.82;4.93;;;;;;;;;;5089319;28;20111;-58
2023/08/20 01:49:57;;;;;;;9.05;4.47;;;;;;;;;;5087509;28;20051;-58
2023/08/20 01:52:23;;;;;;;12.40;5.47;;;;;;;;;;5081373;28;20047;-58
2023/08/20 01:54:49;;;;;;;8.57;4.70;;;;;;;;;;5082373;28;20059;-58
2023/08/20 01:57:16;;;;;;;13.23;4.32;;;;;;;;;;5082391;28;20059;-58
2023/08/20 01:59:42;;;;;;;8.23;4.45;;;;;;;;;;5079678;28;20044;-58
2023/08/20 02:02:08;;;;;;;14.43;5.45;;;;;;;;;;5079772;28;20376;-58
2023/08/20 02:04:34;;;;;;;11.18;5.63;;;;;;;;;;5085286;28;20097;-58
2023/08/20 02:07:01;;;;;;;13.15;5.97;;;;;;;;;;5086297;28;20048;-58
2023/08/20 02:09:27;;;;;;;12.25;5.85;;;;;;;;;;5083473;28;20373;-58
2023/08/20 02:11:53;;;;;;;15.35;6.63;;;;;;;;;;5089490;28;20054;-58
2023/08/20 02:14:19;;;;;;;9.48;5.50;;;;;;;;;;5092475;28;20086;-58
2023/08/20 02:16:46;;;;;;;17.15;6.50;;;;;;;;;;5085761;28;20058;-58
2023/08/20 02:19:13;;;;;;;14.90;6.30;;;;;;;;;;5089571;28;20118;-58
2023/08/20 02:21:40;;;;;;;12.32;6.35;;;;;;;;;;5087418;28;20079;-58
2023/08/20 02:24:06;;;;;;;12.45;6.57;;;;;;;;;;5095111;28;20032;-58
2023/08/20 02:26:32;;;;;;;13.48;6.63;;;;;;;;;;5092098;28;20036;-58
2023/08/20 02:28:58;;;;;;;13.43;6.45;;;;;;;;;;5087626;28;20036;-58
2023/08/20 02:31:25;;;;;;;16.80;5.53;;;;;;;;;;5099667;28;20452;-58
2023/08/20 02:33:51;;;;;;;16.83;6.05;;;;;;;;;;5087170;28;20045;-58
2023/08/20 02:36:17;;;;;;;13.43;6.38;;;;;;;;;;5083391;28;20043;-58
2023/08/20 02:38:45;;;;;;;14.27;5.82;;;;;;;;;;5084919;28;20173;-58
2023/08/20 02:41:12;;;;;;;11.30;5.90;;;;;;;;;;5085868;28;20044;-58
2023/08/20 02:43:38;;;;;;;19.30;6.32;;;;;;;;;;5089213;28;20119;-58
2023/08/20 02:46:04;;;;;;;15.40;6.40;;;;;;;;;;5088523;28;20101;-58
2023/08/20 02:48:31;;;;;;;9.60;5.63;;;;;;;;;;5088360;28;20557;-58
2023/08/20 02:50:57;;;;;;;18.48;6.10;;;;;;;;;;5085138;28;20364;-58
2023/08/20 02:53:23;;;;;;;16.00;6.72;;;;;;;;;;5087318;28;20468;-58
2023/08/20 02:55:49;;;;;;;12.15;6.55;;;;;;;;;;5080850;28;20048;-58
2023/08/20 02:58:16;;;;;;;13.25;6.78;;;;;;;;;;5081521;28;20047;-58
2023/08/20 03:00:44;;;;;;;15.10;7.07;;;;;;;;;;5087931;28;20063;-58
2023/08/20 03:03:11;;;;;;;11.98;7.55;;;;;;;;;;5088135;28;20511;-58
2023/08/20 03:05:37;;;;;;;11.65;6.72;;;;;;;;;;5089469;28;20036;-59
2023/08/20 03:08:03;;;;;;;14.27;6.25;;;;;;;;;;5083857;28;20040;-58
2023/08/20 03:10:31;;;;;;;14.45;7.25;;;;;;;;;;5079262;28;21716;-58
2023/08/20 03:12:57;;;;;;;12.52;6.22;;;;;;;;;;5081461;28;20048;-58
2023/08/20 03:15:23;;;;;;;12.90;7.30;;;;;;;;;;5082068;28;20054;-58
2023/08/20 03:17:49;;;;;;;12.80;6.50;;;;;;;;;;5081161;28;20068;-58
2023/08/20 03:20:16;;;;;;;13.02;6.72;;;;;;;;;;5084138;28;20044;-58
2023/08/20 03:22:42;;;;;;;16.23;6.43;;;;;;;;;;5094845;28;20104;-58
2023/08/20 03:25:08;;;;;;;9.93;6.18;;;;;;;;;;5082425;28;20106;-58
2023/08/20 03:27:34;;;;;;;11.68;6.40;;;;;;;;;;5091143;28;20565;-58
2023/08/20 03:30:01;;;;;;;15.23;6.47;;;;;;;;;;5091132;28;20044;-58
2023/08/20 03:32:27;;;;;;;12.50;6.35;;;;;;;;;;5096810;28;20085;-58
2023/08/20 03:34:55;;;;;;;16.58;7.57;;;;;;;;;;5093315;28;20051;-58
2023/08/20 03:37:22;;;;;;;12.55;6.72;;;;;;;;;;5092370;28;20040;-58
2023/08/20 03:39:48;;;;;;;17.48;7.78;;;;;;;;;;5098167;28;20048;-58
2023/08/20 03:42:14;;;;;;;18.08;8.25;;;;;;;;;;5097328;28;20036;-58
2023/08/20 03:44:40;;;;;;;17.05;7.78;;;;;;;;;;5093477;28;20055;-59
2023/08/20 03:47:07;;;;;;;12.95;7.47;;;;;;;;;;5091179;28;20111;-58
2023/08/20 03:49:33;;;;;;;20.30;8.57;;;;;;;;;;5089918;28;20484;-58
2023/08/20 03:52:01;;;;;;;17.38;7.40;;;;;;;;;;5091046;28;20479;-58
2023/08/20 03:54:28;;;;;;;14.00;7.05;;;;;;;;;;5092763;28;20055;-59
2023/08/20 03:56:55;;;;;;;11.00;6.65;;;;;;;;;;5092203;28;20150;-58
2023/08/20 03:59:21;;;;;;;10.25;6.55;;;;;;;;;;5091810;28;20058;-58
2023/08/20 04:01:47;;;;;;;10.20;6.78;;;;;;;;;;5090929;28;20044;-58
2023/08/20 04:04:13;;;;;;;11.60;6.80;;;;;;;;;;5089935;28;20426;-58
2023/08/20 04:06:39;;;;;;;10.70;6.70;;;;;;;;;;5091028;28;20040;-57
2023/08/20 04:09:06;;;;;;;13.48;7.05;;;;;;;;;;5094171;28;20048;-59
2023/08/20 04:11:32;;;;;;;10.25;6.68;;;;;;;;;;5101814;28;20426;-58
2023/08/20 04:13:58;;;;;;;10.90;7.07;;;;;;;;;;5093081;28;20126;-58
2023/08/20 04:16:25;;;;;;;15.88;7.07;;;;;;;;;;5089630;28;20048;-57
2023/08/20 04:18:51;;;;;;;15.75;7.53;;;;;;;;;;5091187;28;20059;-57
2023/08/20 04:21:18;;;;;;;16.48;8.15;;;;;;;;;;5089449;28;20055;-58
2023/08/20 04:23:44;;;;;;;13.15;7.63;;;;;;;;;;5090611;28;20048;-58
2023/08/20 04:26:10;;;;;;;16.27;8.15;;;;;;;;;;5094897;28;20051;-58
2023/08/20 04:28:36;;;;;;;12.90;7.63;;;;;;;;;;5101075;28;20044;-58
2023/08/20 04:31:02;;;;;;;11.38;7.00;;;;;;;;;;5091067;28;20036;-58
2023/08/20 04:33:28;;;;;;;14.18;6.30;;;;;;;;;;5091984;28;20047;-58
2023/08/20 04:35:54;;;;;;;12.52;6.32;;;;;;;;;;5097210;28;20047;-58
2023/08/20 04:38:21;;;;;;;10.05;5.95;;;;;;;;;;5092617;28;20108;-58
2023/08/20 04:40:47;;;;;;;10.23;6.03;;;;;;;;;;5089695;28;20387;-58
2023/08/20 04:43:14;;;;;;;10.18;5.82;;;;;;;;;;5095074;28;20119;-58
2023/08/20 04:45:41;;;;;;;13.98;6.70;;;;;;;;;;5096490;28;20507;-57
2023/08/20 04:48:07;;;;;;;14.57;7.07;;;;;;;;;;5089203;28;20035;-59
2023/08/20 04:50:33;;;;;;;11.43;6.80;;;;;;;;;;5090864;28;20135;-58
2023/08/20 04:52:59;;;;;;;14.85;7.22;;;;;;;;;;5090115;28;20047;-58
2023/08/20 04:55:26;;;;;;;14.60;7.88;;;;;;;;;;5091621;28;20036;-58
2023/08/20 04:57:52;;;;;;;13.73;7.68;;;;;;;;;;5090876;28;20051;-58
2023/08/20 05:00:19;;;;;;;13.88;7.28;;;;;;;;;;5091814;28;20040;-58
2023/08/20 05:02:45;;;;;;;19.05;7.30;;;;;;;;;;5088886;28;20478;-61
2023/08/20 05:05:12;;;;;;;11.60;7.47;;;;;;;;;;5090984;28;20120;-58
2023/08/20 05:07:38;;;;;;;18.05;8.73;;;;;;;;;;5091916;28;20104;-63
2023/08/20 05:10:04;;;;;;;18.35;7.90;;;;;;;;;;5090215;28;20047;-58
2023/08/20 05:12:31;;;;;;;18.80;7.88;;;;;;;;;;5089465;28;20050;-63
2023/08/20 05:14:57;;;;;;;14.85;7.47;;;;;;;;;;5092053;28;20048;-58
2023/08/20 05:17:23;;;;;;;12.38;7.25;;;;;;;;;;5090476;28;20043;-58
2023/08/20 05:19:49;;;;;;;15.52;7.10;;;;;;;;;;5091914;28;20055;-59
2023/08/20 05:22:15;;;;;;;18.35;7.38;;;;;;;;;;5089665;28;20047;-59
2023/08/20 05:24:41;;;;;;;12.60;7.20;;;;;;;;;;5090978;28;20377;-59
2023/08/20 05:27:09;;;;;;;17.75;7.35;;;;;;;;;;5091618;28;20044;-60
2023/08/20 05:29:35;;;;;;;16.98;8.27;;;;;;;;;;5090383;28;20885;-60
2023/08/20 05:32:01;;;;;;;17.65;8.27;;;;;;;;;;5089423;28;20044;-60
2023/08/20 05:34:27;;;;;;;20.45;8.23;;;;;;;;;;5091471;28;20051;-58
2023/08/20 05:36:54;;;;;;;15.30;8.90;;;;;;;;;;5090941;28;20105;-59
2023/08/20 05:39:20;;;;;;;19.17;8.80;;;;;;;;;;5089058;28;20044;-58
2023/08/20 05:41:46;;;;;;;17.38;8.07;;;;;;;;;;5090454;28;20040;-58
2023/08/20 05:44:12;;;;;;;19.15;9.40;;;;;;;;;;5089620;28;20040;-58
2023/08/20 05:46:40;;;;;;;26.70;9.30;;;;;;;;;;5088453;28;20440;-59
2023/08/20 05:49:07;;;;;;;18.75;8.82;;;;;;;;;;5085794;28;20040;-65
2023/08/20 05:51:33;;;;;;;23.00;9.90;;;;;;;;;;5090578;28;20090;-62
2023/08/20 05:53:59;;;;;;;21.90;8.40;;;;;;;;;;5090312;28;20055;-67
2023/08/20 05:56:25;;;;;;;18.10;8.02;;;;;;;;;;5089865;28;20047;-59
2023/08/20 05:58:51;;;;;;;33.63;9.88;;;;;;;;;;5090073;28;20048;-60
2023/08/20 06:01:18;;;;;;;22.02;8.68;;;;;;;;;;5089085;28;20165;-59
2023/08/20 06:03:44;;;;;;;24.33;9.07;;;;;;;;;;5090744;28;20039;-59
2023/08/20 06:06:10;;;;;;;27.92;8.90;;;;;;;;;;5089322;28;20049;-60
2023/08/20 06:08:36;;;;;;;24.02;9.75;;;;;;;;;;5092035;28;20042;-60
2023/08/20 06:11:02;;;;;;;27.77;9.90;;;;;;;;;;5088533;28;20039;-60
2023/08/20 06:13:28;;;;;;;21.92;9.18;;;;;;;;;;5088811;28;20142;-60
2023/08/20 06:15:55;;;;;;;29.45;10.15;;;;;;;;;;5090718;28;20044;-59
2023/08/20 06:18:21;;;;;;;28.25;10.23;;;;;;;;;;5090884;28;20384;-60
2023/08/20 06:20:47;;;;;;;24.85;9.65;;;;;;;;;;5088889;28;20044;-59
2023/08/20 06:23:13;;;;;;;26.95;10.25;;;;;;;;;;5090989;28;20407;-60
2023/08/20 06:25:39;;;;;;;25.00;10.90;;;;;;;;;;5099565;28;20120;-59
2023/08/20 06:28:06;;;;;;;25.85;10.40;;;;;;;;;;5084308;28;20040;-60
2023/08/20 06:30:32;;;;;;;28.88;9.13;;;;;;;;;;5089729;28;20116;-60
2023/08/20 06:32:58;;;;;;;22.23;9.13;;;;;;;;;;5089359;28;20119;-60
2023/08/20 06:35:24;;;;;;;31.17;9.82;;;;;;;;;;5083615;28;20441;-60
2023/08/20 06:37:50;;;;;;;23.13;7.97;;;;;;;;;;5080720;28;20029;-60
2023/08/20 06:40:16;;;;;;;25.92;9.98;;;;;;;;;;5090742;28;20036;-60
2023/08/20 06:42:43;;;;;;;24.75;8.20;;;;;;;;;;5089017;28;20049;-60
2023/08/20 06:45:09;;;;;;;26.30;8.30;;;;;;;;;;5089219;28;20508;-60
2023/08/20 06:47:35;;;;;;;23.73;10.43;;;;;;;;;;5091074;28;20047;-60
2023/08/20 06:50:02;;;;;;;26.88;9.50;;;;;;;;;;5093616;28;20113;-59
2023/08/20 06:52:28;;;;;;;29.52;9.07;;;;;;;;;;5093701;28;20126;-59
2023/08/20 06:54:54;;;;;;;28.52;9.20;;;;;;;;;;5098042;28;20082;-60
2023/08/20 06:57:21;;;;;;;23.52;9.13;;;;;;;;;;5096155;28;20040;-60
2023/08/20 06:59:47;;;;;;;25.85;9.23;;;;;;;;;;5092757;28;20114;-60
2023/08/20 07:02:13;;;;;;;25.30;8.93;;;;;;;;;;5093834;28;20039;-60
2023/08/20 07:04:40;;;;;;;23.60;9.18;;;;;;;;;;5091048;28;20056;-60
2023/08/20 07:07:06;;;;;;;25.17;8.43;;;;;;;;;;5096280;28;20040;-60
2023/08/20 07:09:32;;;;;;;27.00;8.90;;;;;;;;;;5092977;28;20372;-60
2023/08/20 07:11:58;;;;;;;28.05;10.23;;;;;;;;;;5092525;28;20063;-60
2023/08/20 07:14:24;;;;;;;23.50;9.25;;;;;;;;;;5091830;28;20199;-60
2023/08/20 07:16:51;;;;;;;25.63;8.80;;;;;;;;;;5090426;27;20102;-60
2023/08/20 07:19:17;;;;;;;26.10;8.27;;;;;;;;;;5091418;28;20061;-60
2023/08/20 07:21:43;;;;;;;29.08;8.65;;;;;;;;;;5093410;28;20499;-60
2023/08/20 07:24:12;;;;;;;24.95;7.95;;;;;;;;;;5095747;28;20131;-60
2023/08/20 07:26:39;;;;;;;26.83;7.88;;;;;;;;;;5095614;28;20052;-60
2023/08/20 07:29:05;;;;;;;27.90;8.77;;;;;;;;;;5094203;28;20041;-60
2023/08/20 07:31:33;;;;;;;25.27;8.40;;;;;;;;;;5096396;28;20419;-60
2023/08/20 07:34:00;;;;;;;21.42;8.18;;;;;;;;;;5095234;28;20077;-60
2023/08/20 07:36:27;;;;;;;24.05;8.70;;;;;;;;;;5092387;28;20436;-60
2023/08/20 07:38:54;;;;;;;27.90;9.48;;;;;;;;;;5094827;28;20142;-60
2023/08/20 07:41:20;;;;;;;27.42;7.93;;;;;;;;;;5094803;28;20042;-60
2023/08/20 07:43:47;;;;;;;25.70;8.98;;;;;;;;;;5093882;28;20032;-60
2023/08/20 07:46:13;;;;;;;25.58;7.63;;;;;;;;;;5094644;28;20036;-60
2023/08/20 07:48:40;;;;;;;26.83;8.63;;;;;;;;;;5095090;28;20044;-60
2023/08/20 07:51:07;;;;;;;24.92;8.25;;;;;;;;;;5092045;28;20057;-60
2023/08/20 07:53:33;;;;;;;28.13;8.57;;;;;;;;;;5093393;28;20075;-60
2023/08/20 07:56:00;;;;;;;23.25;7.72;;;;;;;;;;5094558;28;20135;-60
2023/08/20 07:58:26;;;;;;;26.55;7.47;;;;;;;;;;5090461;28;20036;-60
2023/08/20 08:00:52;;;;;;;22.95;7.28;;;;;;;;;;5093254;28;20489;-60
2023/08/20 08:03:18;;;;;;;22.65;5.95;;;;;;;;;;5090823;28;20036;-60
2023/08/20 08:05:48;;;;;;;19.58;5.50;;;;;;;;;;5086024;28;20536;-60
2023/08/20 08:08:16;;;;;;;17.70;5.82;;;;;;;;;;5093478;28;20056;-60
2023/08/20 08:10:44;;;;;;;22.08;7.70;;;;;;;;;;5088975;28;20047;-60
2023/08/20 08:13:11;;;;;;;16.05;6.70;;;;;;;;;;5098615;28;20041;-60
2023/08/20 08:15:37;;;;;;;28.55;7.45;;;;;;;;;;5094583;28;20086;-60
2023/08/20 08:18:03;;;;;;;19.65;7.25;;;;;;;;;;5093378;28;20071;-60
2023/08/20 08:20:29;;;;;;;24.25;6.18;;;;;;;;;;5092655;28;20097;-60
2023/08/20 08:22:55;;;;;;;18.10;5.82;;;;;;;;;;5092722;28;20568;-60
2023/08/20 08:25:21;;;;;;;17.70;5.40;;;;;;;;;;5094370;28;20391;-60
2023/08/20 08:27:48;;;;;;;19.25;5.03;;;;;;;;;;5088489;28;20081;-60
2023/08/20 08:30:15;;;;;;;20.25;4.97;;;;;;;;;;5091890;28;20055;-60
2023/08/20 08:32:41;;;;;;;21.13;6.20;;;;;;;;;;5093665;28;20067;-60
2023/08/20 08:35:09;;;;;;;17.67;4.78;;;;;;;;;;5092198;28;20077;-60
2023/08/20 08:37:38;;;;;;;18.63;5.53;;;;;;;;;;5093752;28;20135;-60
2023/08/20 08:40:07;;;;;;;17.45;4.93;;;;;;;;;;5091323;28;20542;-60
2023/08/20 08:42:34;;;;;;;16.45;4.70;;;;;;;;;;5092573;28;20512;-60
2023/08/20 08:45:00;;;;;;;16.52;4.55;;;;;;;;;;5090718;28;20028;-60
2023/08/20 08:47:27;;;;;;;16.33;5.47;;;;;;;;;;5089885;28;20429;-60
2023/08/20 08:49:58;;;;;;;13.10;3.03;;;;;;;;;;5087933;28;20040;-60
2023/08/20 08:52:25;;;;;;;18.00;4.45;;;;;;;;;;5086940;28;20147;-60
2023/08/20 08:54:52;;;;;;;10.00;3.22;;;;;;;;;;5090848;28;20043;-60
2023/08/20 08:57:18;;;;;;;18.15;3.42;;;;;;;;;;5091489;28;20387;-60
2023/08/20 08:59:44;;;;;;;12.60;3.55;;;;;;;;;;5092094;28;20051;-60
2023/08/20 09:02:11;;;;;;;14.57;4.15;;;;;;;;;;5089949;28;20484;-60
2023/08/20 09:04:41;;;;;;;13.80;3.10;;;;;;;;;;5090914;28;20036;-60
2023/08/20 09:07:14;;;;;;;18.77;4.05;;;;;;;;;;5091229;28;20036;-60
2023/08/20 09:09:44;;;;;;;15.25;3.05;;;;;;;;;;5091256;28;20051;-60
2023/08/20 09:12:20;;;;;;;12.02;2.53;;;;;;;;;;5090887;28;20040;-60
2023/08/20 09:14:47;;;;;;;13.88;2.90;;;;;;;;;;5091023;28;20040;-60
2023/08/20 09:17:14;;;;;;;13.32;3.08;;;;;;;;;;5089776;28;20378;-60
2023/08/20 09:19:42;;;;;;;16.73;3.08;;;;;;;;;;5091494;28;20138;-60
2023/08/20 09:22:08;;;;;;;15.02;3.50;;;;;;;;;;5089399;28;20101;-60
2023/08/20 09:24:39;;;;;;;15.90;3.40;;;;;;;;;;5091840;28;20123;-60
2023/08/20 09:27:06;;;;;;;13.73;3.40;;;;;;;;;;5091617;28;20092;-60
2023/08/20 09:29:33;;;;;;;13.90;3.08;;;;;;;;;;5090031;28;20115;-60
2023/08/20 09:32:03;;;;;;;13.40;3.03;;;;;;;;;;5091219;28;20036;-60
2023/08/20 09:34:39;;;;;;;17.88;3.55;;;;;;;;;;5090216;28;20119;-60
2023/08/20 09:37:08;;;;;;;13.20;3.38;;;;;;;;;;5090859;28;20504;-61
2023/08/20 09:39:35;;;;;;;11.60;3.30;;;;;;;;;;5090661;28;20094;-61
2023/08/20 09:42:02;;;;;;;13.07;2.97;;;;;;;;;;5089141;28;20098;-60
2023/08/20 09:44:34;;;;;;;14.38;2.67;;;;;;;;;;5089540;28;20384;-60
2023/08/20 09:47:01;;;;;;;13.50;3.03;;;;;;;;;;5090468;28;20044;-60
2023/08/20 09:49:30;;;;;;;12.48;2.60;;;;;;;;;;5089564;28;20118;-60
2023/08/20 09:51:59;;;;;;;13.02;2.40;;;;;;;;;;5091062;28;20040;-60
2023/08/20 09:54:28;;;;;;;14.27;2.42;;;;;;;;;;5089200;28;20070;-60
2023/08/20 09:56:56;;;;;;;14.65;2.97;;;;;;;;;;5102050;28;20044;-60
2023/08/20 09:59:22;;;;;;;8.77;2.28;;;;;;;;;;5091076;28;20040;-60
2023/08/20 10:01:49;;;;;;;13.63;3.00;;;;;;;;;;5090523;28;20040;-60
2023/08/20 10:04:16;;;;;;;12.10;2.65;;;;;;;;;;5089734;28;20105;-60
2023/08/20 10:06:42;;;;;;;10.55;2.60;;;;;;;;;;5089224;28;20044;-60
2023/08/20 10:09:08;;;;;;;17.10;2.72;;;;;;;;;;5090874;28;20173;-61
2023/08/20 10:11:37;;;;;;;10.77;2.90;;;;;;;;;;5090484;28;20072;-61
2023/08/20 10:14:03;;;;;;;11.93;2.45;;;;;;;;;;5090088;28;20062;-60
2023/08/20 10:16:33;;;;;;;11.02;2.42;;;;;;;;;;5090187;28;20043;-61
2023/08/20 10:19:02;;;;;;;10.57;2.45;;;;;;;;;;5089631;28;20044;-61
2023/08/20 10:21:28;;;;;;;9.90;2.60;;;;;;;;;;5090065;28;20468;-61
2023/08/20 10:23:55;;;;;;;9.07;2.33;;;;;;;;;;5086740;28;20055;-60
2023/08/20 10:26:21;;;;;;;9.90;2.50;;;;;;;;;;5089310;28;20048;-60
2023/08/20 10:28:48;;;;;;;10.20;2.08;;;;;;;;;;5088703;28;20041;-61
2023/08/20 10:31:16;;;;;;;15.80;2.40;;;;;;;;;;5090196;28;20036;-60
2023/08/20 10:33:42;;;;;;;9.27;2.17;;;;;;;;;;5087265;28;20059;-60
2023/08/20 10:36:10;;;;;;;7.93;2.13;;;;;;;;;;5090413;28;20040;-61
2023/08/20 10:38:37;;;;;;;11.27;1.90;;;;;;;;;;5090153;28;20040;-61
2023/08/20 10:41:07;;;;;;;10.45;1.98;;;;;;;;;;5087869;28;20044;-61
2023/08/20 10:43:34;;;;;;;15.30;3.10;;;;;;;;;;5087049;28;20044;-61
2023/08/20 10:46:06;;;;;;;10.30;2.25;;;;;;;;;;5087933;28;20055;-61
2023/08/20 10:48:34;;;;;;;10.10;2.00;;;;;;;;;;5089946;28;20058;-61
2023/08/20 10:51:06;;;;;;;6.75;1.75;;;;;;;;;;5089592;28;20064;-61
2023/08/20 10:53:32;;;;;;;;;;;;;;;;;;5083538;28;20059;-61
2023/08/20 10:56:08;;;;;;;8.38;2.08;;;;;;;;;;5089384;28;19955;-61
2023/08/20 10:58:34;;;;;;;7.95;1.70;;;;;;;;;;5076530;28;20044;-61
2023/08/20 11:01:19;;;;;;;7.68;1.38;;;;;;;;;;5087525;28;20043;-61
2023/08/20 11:03:45;;;;;;;9.00;1.67;;;;;;;;;;5078296;28;20055;-60
2023/08/20 11:06:12;;;;;;;9.60;2.00;;;;;;;;;;5089654;28;20078;-61
2023/08/20 11:08:42;;;;;;;8.60;1.60;;;;;;;;;;5089369;28;20047;-61
2023/08/20 11:11:08;;;;;;;9.52;2.00;;;;;;;;;;5087017;28;20036;-61
2023/08/20 11:13:35;;;;;;;6.75;1.42;;;;;;;;;;5089647;28;20044;-61
2023/08/20 11:16:02;;;;;;;7.47;1.60;;;;;;;;;;5087957;28;20076;-61
2023/08/20 11:18:29;;;;;;;6.20;2.00;;;;;;;;;;5083608;28;20039;-61
2023/08/20 11:20:55;;;;;;;5.05;1.63;;;;;;;;;;5088842;28;20132;-61
2023/08/20 11:23:22;;;;;;;4.63;1.33;;;;;;;;;;5087912;28;20036;-61
2023/08/20 11:25:49;;;;;;;8.18;2.00;;;;;;;;;;5088776;28;20066;-61
2023/08/20 11:28:15;;;;;;;8.25;1.95;;;;;;;;;;5086823;28;20415;-61
2023/08/20 11:30:41;;;;;;;6.40;1.65;;;;;;;;;;5087074;28;20040;-61
2023/08/20 11:33:07;;;;;;;9.82;1.60;;;;;;;;;;5088147;28;20536;-61
2023/08/20 11:35:34;;;;;;;6.75;1.73;;;;;;;;;;5088775;28;20040;-61
2023/08/20 11:38:01;;;;;;;7.82;2.00;;;;;;;;;;5086949;28;20122;-61
2023/08/20 11:40:27;;;;;;;11.57;2.08;;;;;;;;;;5091753;28;20044;-61
2023/08/20 11:42:53;;;;;;;7.38;1.52;;;;;;;;;;5091354;28;20036;-61
2023/08/20 11:45:19;;;;;;;5.57;1.42;;;;;;;;;;5093162;28;20630;-61
2023/08/20 11:47:46;;;;;;;7.45;1.63;;;;;;;;;;5089679;28;20101;-61
2023/08/20 11:50:12;;;;;;;6.85;1.90;;;;;;;;;;5088633;28;20056;-61
2023/08/20 11:52:42;;;;;;;6.13;1.33;;;;;;;;;;5091529;28;20435;-61
2023/08/20 11:55:09;;;;;;;6.10;1.55;;;;;;;;;;5091640;28;20417;-61
2023/08/20 11:57:35;;;;;;;5.93;1.90;;;;;;;;;;5090935;28;20068;-61
2023/08/20 12:00:04;;;;;;;7.50;2.15;;;;;;;;;;5091657;28;20044;-61
2023/08/20 12:02:30;;;;;;;7.82;1.40;;;;;;;;;;5093326;28;20104;-61
2023/08/20 12:04:58;;;;;;;5.53;1.63;;;;;;;;;;5092337;28;20036;-59
2023/08/20 12:07:27;;;;;;;6.25;1.50;;;;;;;;;;5093316;28;20435;-59
2023/08/20 12:09:54;;;;;;;8.05;1.77;;;;;;;;;;5093091;28;20111;-59
2023/08/20 12:12:21;;;;;;;8.15;1.48;;;;;;;;;;5090745;28;20464;-59
2023/08/20 12:14:47;;;;;;;9.80;1.80;;;;;;;;;;5093214;28;20062;-59
2023/08/20 12:17:17;;;;;;;7.22;1.65;;;;;;;;;;5090707;28;20471;-59
2023/08/20 12:19:43;;;;;;;7.57;1.70;;;;;;;;;;5092062;28;20048;-59
2023/08/20 12:22:09;;;;;;;8.38;1.98;;;;;;;;;;5090562;28;20059;-59
2023/08/20 12:24:35;;;;;;;7.57;1.88;;;;;;;;;;5091191;28;20035;-59
2023/08/20 12:27:03;;;;;;;9.57;2.05;;;;;;;;;;5092233;28;20131;-59
2023/08/20 12:29:29;;;;;;;9.07;1.70;;;;;;;;;;5090954;28;20047;-59
2023/08/20 12:31:56;;;;;;;6.85;1.50;;;;;;;;;;5087788;28;20044;-59
2023/08/20 12:34:23;;;;;;;7.05;1.60;;;;;;;;;;5092406;28;20728;-59
2023/08/20 12:36:50;;;;;;;6.18;1.50;;;;;;;;;;5096988;28;20048;-59
2023/08/20 12:39:16;;;;;;;6.65;1.63;;;;;;;;;;5090922;28;20043;-59
2023/08/20 12:41:43;;;;;;;9.27;1.75;;;;;;;;;;5090222;28;20048;-59
2023/08/20 12:44:09;;;;;;;9.20;1.65;;;;;;;;;;5087687;28;20131;-58
2023/08/20 12:46:35;;;;;;;9.80;1.70;;;;;;;;;;5094852;28;20048;-59
2023/08/20 12:49:01;;;;;;;8.13;1.77;;;;;;;;;;5111080;28;20047;-59
2023/08/20 12:51:28;;;;;;;6.65;1.63;;;;;;;;;;5101287;28;20078;-59
2023/08/20 12:53:54;;;;;;;6.13;1.48;;;;;;;;;;5098046;27;20050;-58
2023/08/20 12:56:20;;;;;;;8.45;1.85;;;;;;;;;;5093609;28;20048;-58
2023/08/20 12:58:46;;;;;;;5.47;1.33;;;;;;;;;;5095557;28;20138;-58
2023/08/20 13:01:12;;;;;;;7.80;1.80;;;;;;;;;;5095026;28;20044;-58
2023/08/20 13:03:39;;;;;;;7.45;1.70;;;;;;;;;;5099372;28;20036;-58
2023/08/20 13:06:05;;;;;;;8.68;1.45;;;;;;;;;;5104798;28;20044;-58
2023/08/20 13:08:31;;;;;;;8.57;1.70;;;;;;;;;;5097766;28;20461;-58
2023/08/20 13:10:58;;;;;;;7.10;1.63;;;;;;;;;;5089593;28;20052;-58
2023/08/20 13:13:25;;;;;;;7.07;1.40;;;;;;;;;;5090720;28;20144;-58
2023/08/20 13:15:52;;;;;;;9.13;2.03;;;;;;;;;;5089955;28;20166;-58
2023/08/20 13:18:18;;;;;;;9.05;1.95;;;;;;;;;;5091467;28;20348;-58
2023/08/20 13:20:45;;;;;;;10.80;1.88;;;;;;;;;;5088236;28;20074;-58
2023/08/20 13:23:11;;;;;;;6.80;1.73;;;;;;;;;;5089510;28;20445;-58
2023/08/20 13:25:37;;;;;;;7.55;2.00;;;;;;;;;;5091031;28;20044;-58
2023/08/20 13:28:03;;;;;;;7.72;1.63;;;;;;;;;;5089496;28;20040;-58
2023/08/20 13:30:30;;;;;;;6.13;1.83;;;;;;;;;;5089185;28;20387;-58
2023/08/20 13:32:56;;;;;;;9.23;1.92;;;;;;;;;;5090764;28;20040;-58
2023/08/20 13:35:25;;;;;;;8.13;1.55;;;;;;;;;;5089956;28;20445;-58
2023/08/20 13:37:52;;;;;;;8.43;1.75;;;;;;;;;;5090824;28;20040;-58
2023/08/20 13:40:19;;;;;;;6.47;1.75;;;;;;;;;;5089855;28;20055;-58
2023/08/20 13:42:45;;;;;;;7.43;2.03;;;;;;;;;;5088274;28;20052;-57
2023/08/20 13:45:11;;;;;;;8.93;1.80;;;;;;;;;;5090418;28;20088;-58
2023/08/20 13:47:37;;;;;;;9.68;2.10;;;;;;;;;;5089872;28;20535;-58
2023/08/20 13:50:04;;;;;;;8.63;1.98;;;;;;;;;;5088644;28;20095;-58
2023/08/20 13:52:30;;;;;;;8.57;1.92;;;;;;;;;;5091073;28;20123;-58
2023/08/20 13:54:56;;;;;;;8.63;2.20;;;;;;;;;;5089190;28;20044;-58
2023/08/20 13:57:23;;;;;;;10.15;2.05;;;;;;;;;;5089145;28;20093;-58
2023/08/20 13:59:50;;;;;;;7.47;1.80;;;;;;;;;;5089502;28;20062;-58
2023/08/20 14:02:16;;;;;;;6.18;1.65;;;;;;;;;;5090601;28;20055;-58
2023/08/20 14:04:42;;;;;;;7.25;1.70;;;;;;;;;;5089608;28;20040;-58
2023/08/20 14:07:08;;;;;;;7.55;1.70;;;;;;;;;;5091297;28;20051;-58
2023/08/20 14:09:35;;;;;;;9.65;1.88;;;;;;;;;;5090132;28;20062;-58
2023/08/20 14:12:02;;;;;;;6.15;1.58;;;;;;;;;;5089425;28;20040;-58
2023/08/20 14:14:28;;;;;;;5.22;1.35;;;;;;;;;;5090968;28;20483;-58
2023/08/20 14:16:54;;;;;;;8.40;1.88;;;;;;;;;;5090166;28;20258;-58
2023/08/20 14:19:20;;;;;;;6.82;1.90;;;;;;;;;;5088382;28;20051;-58
2023/08/20 14:21:46;;;;;;;7.25;1.98;;;;;;;;;;5090125;28;20487;-58
2023/08/20 14:24:12;;;;;;;8.25;2.22;;;;;;;;;;5086789;28;20097;-58
2023/08/20 14:26:39;;;;;;;5.88;1.23;;;;;;;;;;5088394;28;20044;-57
2023/08/20 14:29:05;;;;;;;7.30;1.83;;;;;;;;;;5090069;28;20438;-58
2023/08/20 14:31:31;;;;;;;7.40;1.83;;;;;;;;;;5089199;28;20039;-58